sensor_id;sensor_type;location;lat;lon;timestamp;P1;durP1;ratioP1;P2;durP2;ratioP2
211;SDS011;16228;48.800;9.002;2022-07-29T00:00:21;4.17;;;3.77;;
211;SDS011;16228;48.800;9.002;2022-07-29T00:02:48;4.70;;;4.27;;
211;SDS011;16228;48.800;9.002;2022-07-29T00:05:15;4.80;;;4.40;;
211;SDS011;16228;48.800;9.002;2022-07-29T00:07:42;5.07;;;4.57;;
211;SDS011;16228;48.800;9.002;2022-07-29T00:10:10;4.30;;;4.00;;
211;SDS011;16228;48.800;9.002;2022-07-29T00:12:37;5.17;;;4.27;;
211;SDS011;16228;48.800;9.002;2022-07-29T00:15:04;4.77;;;4.37;;
211;SDS011;16228;48.800;9.002;2022-07-29T00:17:32;4.50;;;4.20;;
211;SDS011;16228;48.800;9.002;2022-07-29T00:19:59;5.30;;;4.80;;
211;SDS011;16228;48.800;9.002;2022-07-29T00:22:26;5.40;;;4.43;;
211;SDS011;16228;48.800;9.002;2022-07-29T00:24:53;5.43;;;4.93;;
211;SDS011;16228;48.800;9.002;2022-07-29T00:27:21;6.20;;;4.63;;
211;SDS011;16228;48.800;9.002;2022-07-29T00:29:49;4.33;;;3.93;;
211;SDS011;16228;48.800;9.002;2022-07-29T00:32:16;5.70;;;5.00;;
211;SDS011;16228;48.800;9.002;2022-07-29T00:34:42;5.00;;;4.50;;
211;SDS011;16228;48.800;9.002;2022-07-29T00:37:27;5.37;;;4.87;;
211;SDS011;16228;48.800;9.002;2022-07-29T00:39:54;6.37;;;4.63;;
211;SDS011;16228;48.800;9.002;2022-07-29T00:42:22;5.30;;;4.80;;
211;SDS011;16228;48.800;9.002;2022-07-29T00:44:50;6.57;;;5.20;;
211;SDS011;16228;48.800;9.002;2022-07-29T00:47:16;5.47;;;4.97;;
211;SDS011;16228;48.800;9.002;2022-07-29T00:49:43;5.37;;;4.60;;
211;SDS011;16228;48.800;9.002;2022-07-29T00:52:11;4.77;;;4.20;;
211;SDS011;16228;48.800;9.002;2022-07-29T00:54:38;4.50;;;4.10;;
211;SDS011;16228;48.800;9.002;2022-07-29T00:57:06;4.87;;;4.37;;
211;SDS011;16228;48.800;9.002;2022-07-29T00:59:35;4.83;;;4.40;;
211;SDS011;16228;48.800;9.002;2022-07-29T01:02:02;5.97;;;4.10;;
211;SDS011;16228;48.800;9.002;2022-07-29T01:04:30;6.37;;;4.43;;
211;SDS011;16228;48.800;9.002;2022-07-29T01:06:57;5.07;;;4.20;;
211;SDS011;16228;48.800;9.002;2022-07-29T01:09:26;4.43;;;4.03;;
211;SDS011;16228;48.800;9.002;2022-07-29T01:11:54;5.53;;;4.03;;
211;SDS011;16228;48.800;9.002;2022-07-29T01:14:21;4.37;;;3.97;;
211;SDS011;16228;48.800;9.002;2022-07-29T01:16:51;4.10;;;3.80;;
211;SDS011;16228;48.800;9.002;2022-07-29T01:19:31;4.80;;;4.27;;
211;SDS011;16228;48.800;9.002;2022-07-29T01:22:16;5.53;;;4.70;;
211;SDS011;16228;48.800;9.002;2022-07-29T01:25:14;5.33;;;4.83;;
211;SDS011;16228;48.800;9.002;2022-07-29T01:28:04;4.50;;;4.10;;
211;SDS011;16228;48.800;9.002;2022-07-29T01:30:44;7.37;;;4.83;;
211;SDS011;16228;48.800;9.002;2022-07-29T01:33:13;4.90;;;4.47;;
211;SDS011;16228;48.800;9.002;2022-07-29T01:35:57;5.07;;;3.63;;
211;SDS011;16228;48.800;9.002;2022-07-29T01:38:25;5.13;;;4.20;;
211;SDS011;16228;48.800;9.002;2022-07-29T01:40:58;4.60;;;4.20;;
211;SDS011;16228;48.800;9.002;2022-07-29T01:43:32;5.37;;;4.87;;
211;SDS011;16228;48.800;9.002;2022-07-29T01:46:11;5.27;;;4.77;;
211;SDS011;16228;48.800;9.002;2022-07-29T01:48:45;4.67;;;4.27;;
211;SDS011;16228;48.800;9.002;2022-07-29T01:51:17;5.87;;;5.37;;
211;SDS011;16228;48.800;9.002;2022-07-29T01:53:47;4.63;;;4.33;;
211;SDS011;16228;48.800;9.002;2022-07-29T01:56:20;4.93;;;4.47;;
211;SDS011;16228;48.800;9.002;2022-07-29T01:58:49;4.80;;;4.30;;
211;SDS011;16228;48.800;9.002;2022-07-29T02:01:20;7.37;;;4.53;;
211;SDS011;16228;48.800;9.002;2022-07-29T02:03:50;5.30;;;4.17;;
211;SDS011;16228;48.800;9.002;2022-07-29T02:06:19;5.53;;;4.20;;
211;SDS011;16228;48.800;9.002;2022-07-29T02:08:48;4.77;;;3.63;;
211;SDS011;16228;48.800;9.002;2022-07-29T02:11:18;3.90;;;3.47;;
211;SDS011;16228;48.800;9.002;2022-07-29T02:13:45;3.53;;;3.23;;
211;SDS011;16228;48.800;9.002;2022-07-29T02:16:15;5.10;;;4.00;;
211;SDS011;16228;48.800;9.002;2022-07-29T02:18:46;3.80;;;3.50;;
211;SDS011;16228;48.800;9.002;2022-07-29T02:21:15;5.97;;;3.67;;
211;SDS011;16228;48.800;9.002;2022-07-29T02:23:49;4.80;;;3.90;;
211;SDS011;16228;48.800;9.002;2022-07-29T02:26:18;4.03;;;3.33;;
211;SDS011;16228;48.800;9.002;2022-07-29T02:28:46;3.80;;;3.40;;
211;SDS011;16228;48.800;9.002;2022-07-29T02:31:15;4.43;;;3.50;;
211;SDS011;16228;48.800;9.002;2022-07-29T02:33:44;5.60;;;3.40;;
211;SDS011;16228;48.800;9.002;2022-07-29T02:36:14;3.90;;;3.50;;
211;SDS011;16228;48.800;9.002;2022-07-29T02:38:43;3.17;;;2.87;;
211;SDS011;16228;48.800;9.002;2022-07-29T02:41:18;3.50;;;3.20;;
211;SDS011;16228;48.800;9.002;2022-07-29T02:43:50;3.23;;;2.83;;
211;SDS011;16228;48.800;9.002;2022-07-29T02:46:20;3.53;;;3.33;;
211;SDS011;16228;48.800;9.002;2022-07-29T02:48:57;3.97;;;3.57;;
211;SDS011;16228;48.800;9.002;2022-07-29T02:51:28;5.83;;;3.43;;
211;SDS011;16228;48.800;9.002;2022-07-29T02:54:02;4.30;;;3.90;;
211;SDS011;16228;48.800;9.002;2022-07-29T02:56:35;4.73;;;4.23;;
211;SDS011;16228;48.800;9.002;2022-07-29T02:59:06;3.63;;;3.33;;
211;SDS011;16228;48.800;9.002;2022-07-29T03:01:39;5.00;;;4.00;;
211;SDS011;16228;48.800;9.002;2022-07-29T03:04:11;4.70;;;4.13;;
211;SDS011;16228;48.800;9.002;2022-07-29T03:06:40;4.03;;;3.67;;
211;SDS011;16228;48.800;9.002;2022-07-29T03:09:10;4.70;;;4.30;;
211;SDS011;16228;48.800;9.002;2022-07-29T03:11:37;4.40;;;3.97;;
211;SDS011;16228;48.800;9.002;2022-07-29T03:14:05;5.13;;;4.63;;
211;SDS011;16228;48.800;9.002;2022-07-29T03:16:33;5.47;;;4.87;;
211;SDS011;16228;48.800;9.002;2022-07-29T03:19:02;4.80;;;4.30;;
211;SDS011;16228;48.800;9.002;2022-07-29T03:21:31;4.80;;;4.27;;
211;SDS011;16228;48.800;9.002;2022-07-29T03:23:59;4.80;;;4.30;;
211;SDS011;16228;48.800;9.002;2022-07-29T03:26:26;4.53;;;4.13;;
211;SDS011;16228;48.800;9.002;2022-07-29T03:28:54;5.00;;;4.50;;
211;SDS011;16228;48.800;9.002;2022-07-29T03:31:21;4.40;;;4.10;;
211;SDS011;16228;48.800;9.002;2022-07-29T03:33:48;6.97;;;5.07;;
211;SDS011;16228;48.800;9.002;2022-07-29T03:36:15;4.73;;;4.23;;
211;SDS011;16228;48.800;9.002;2022-07-29T03:38:43;5.33;;;4.83;;
211;SDS011;16228;48.800;9.002;2022-07-29T03:41:12;4.70;;;4.30;;
211;SDS011;16228;48.800;9.002;2022-07-29T03:43:40;6.13;;;4.20;;
211;SDS011;16228;48.800;9.002;2022-07-29T03:46:09;5.20;;;4.80;;
211;SDS011;16228;48.800;9.002;2022-07-29T03:48:39;3.40;;;3.10;;
211;SDS011;16228;48.800;9.002;2022-07-29T03:51:10;4.10;;;3.70;;
211;SDS011;16228;48.800;9.002;2022-07-29T03:53:38;3.67;;;3.20;;
211;SDS011;16228;48.800;9.002;2022-07-29T03:56:06;3.70;;;3.10;;
211;SDS011;16228;48.800;9.002;2022-07-29T03:58:36;6.30;;;3.30;;
211;SDS011;16228;48.800;9.002;2022-07-29T04:01:04;4.20;;;3.30;;
211;SDS011;16228;48.800;9.002;2022-07-29T04:03:31;3.67;;;3.37;;
211;SDS011;16228;48.800;9.002;2022-07-29T04:05:59;4.30;;;3.30;;
211;SDS011;16228;48.800;9.002;2022-07-29T04:08:27;4.00;;;3.13;;
211;SDS011;16228;48.800;9.002;2022-07-29T04:10:54;4.73;;;3.13;;
211;SDS011;16228;48.800;9.002;2022-07-29T04:13:23;3.63;;;3.33;;
211;SDS011;16228;48.800;9.002;2022-07-29T04:15:49;3.60;;;3.30;;
211;SDS011;16228;48.800;9.002;2022-07-29T04:18:17;3.50;;;3.20;;
211;SDS011;16228;48.800;9.002;2022-07-29T04:20:43;3.33;;;3.13;;
211;SDS011;16228;48.800;9.002;2022-07-29T04:23:10;3.30;;;3.10;;
211;SDS011;16228;48.800;9.002;2022-07-29T04:25:37;3.10;;;2.90;;
211;SDS011;16228;48.800;9.002;2022-07-29T04:28:05;3.23;;;2.93;;
211;SDS011;16228;48.800;9.002;2022-07-29T04:30:34;3.23;;;2.93;;
211;SDS011;16228;48.800;9.002;2022-07-29T04:33:02;5.57;;;3.40;;
211;SDS011;16228;48.800;9.002;2022-07-29T04:35:30;3.60;;;3.30;;
211;SDS011;16228;48.800;9.002;2022-07-29T04:38:00;3.57;;;3.27;;
211;SDS011;16228;48.800;9.002;2022-07-29T04:40:27;4.63;;;3.13;;
211;SDS011;16228;48.800;9.002;2022-07-29T04:42:54;4.00;;;3.10;;
211;SDS011;16228;48.800;9.002;2022-07-29T04:45:21;3.67;;;2.93;;
211;SDS011;16228;48.800;9.002;2022-07-29T04:47:50;3.03;;;2.83;;
211;SDS011;16228;48.800;9.002;2022-07-29T04:50:17;3.30;;;3.00;;
211;SDS011;16228;48.800;9.002;2022-07-29T04:52:44;3.10;;;2.80;;
211;SDS011;16228;48.800;9.002;2022-07-29T04:55:11;4.23;;;3.20;;
211;SDS011;16228;48.800;9.002;2022-07-29T04:57:38;3.80;;;2.90;;
211;SDS011;16228;48.800;9.002;2022-07-29T05:00:06;3.83;;;2.93;;
211;SDS011;16228;48.800;9.002;2022-07-29T05:02:33;3.00;;;2.80;;
211;SDS011;16228;48.800;9.002;2022-07-29T05:05:02;3.17;;;2.87;;
211;SDS011;16228;48.800;9.002;2022-07-29T05:07:29;3.30;;;2.70;;
211;SDS011;16228;48.800;9.002;2022-07-29T05:09:56;3.80;;;2.70;;
211;SDS011;16228;48.800;9.002;2022-07-29T05:12:23;3.13;;;2.87;;
211;SDS011;16228;48.800;9.002;2022-07-29T05:14:50;3.10;;;2.80;;
211;SDS011;16228;48.800;9.002;2022-07-29T05:17:17;4.43;;;2.90;;
211;SDS011;16228;48.800;9.002;2022-07-29T05:19:45;4.63;;;2.70;;
211;SDS011;16228;48.800;9.002;2022-07-29T05:22:13;4.53;;;3.10;;
211;SDS011;16228;48.800;9.002;2022-07-29T05:24:40;3.40;;;3.10;;
211;SDS011;16228;48.800;9.002;2022-07-29T05:27:07;3.40;;;3.10;;
211;SDS011;16228;48.800;9.002;2022-07-29T05:29:34;4.03;;;3.53;;
211;SDS011;16228;48.800;9.002;2022-07-29T05:32:01;4.07;;;2.90;;
211;SDS011;16228;48.800;9.002;2022-07-29T05:34:29;4.03;;;3.10;;
211;SDS011;16228;48.800;9.002;2022-07-29T05:36:56;3.57;;;2.50;;
211;SDS011;16228;48.800;9.002;2022-07-29T05:39:24;3.13;;;2.93;;
211;SDS011;16228;48.800;9.002;2022-07-29T05:41:51;2.77;;;2.57;;
211;SDS011;16228;48.800;9.002;2022-07-29T05:44:18;4.80;;;3.20;;
211;SDS011;16228;48.800;9.002;2022-07-29T05:46:45;3.67;;;2.83;;
211;SDS011;16228;48.800;9.002;2022-07-29T05:49:18;3.47;;;2.83;;
211;SDS011;16228;48.800;9.002;2022-07-29T05:51:45;3.27;;;2.37;;
211;SDS011;16228;48.800;9.002;2022-07-29T05:54:12;3.47;;;3.17;;
211;SDS011;16228;48.800;9.002;2022-07-29T05:56:41;4.67;;;3.03;;
211;SDS011;16228;48.800;9.002;2022-07-29T05:59:08;3.43;;;3.13;;
211;SDS011;16228;48.800;9.002;2022-07-29T06:01:35;3.00;;;2.80;;
211;SDS011;16228;48.800;9.002;2022-07-29T06:04:04;3.50;;;2.80;;
211;SDS011;16228;48.800;9.002;2022-07-29T06:06:31;2.97;;;2.47;;
211;SDS011;16228;48.800;9.002;2022-07-29T06:08:58;4.90;;;3.23;;
211;SDS011;16228;48.800;9.002;2022-07-29T06:11:26;4.10;;;2.93;;
211;SDS011;16228;48.800;9.002;2022-07-29T06:13:54;3.33;;;2.80;;
211;SDS011;16228;48.800;9.002;2022-07-29T06:16:21;3.43;;;2.97;;
211;SDS011;16228;48.800;9.002;2022-07-29T06:18:48;3.37;;;2.83;;
211;SDS011;16228;48.800;9.002;2022-07-29T06:21:15;2.97;;;2.67;;
211;SDS011;16228;48.800;9.002;2022-07-29T06:23:42;3.50;;;2.70;;
211;SDS011;16228;48.800;9.002;2022-07-29T06:26:10;3.53;;;3.17;;
211;SDS011;16228;48.800;9.002;2022-07-29T06:28:37;3.57;;;3.27;;
211;SDS011;16228;48.800;9.002;2022-07-29T06:31:06;3.30;;;3.00;;
211;SDS011;16228;48.800;9.002;2022-07-29T06:33:33;3.47;;;3.17;;
211;SDS011;16228;48.800;9.002;2022-07-29T06:36:00;3.23;;;2.93;;
211;SDS011;16228;48.800;9.002;2022-07-29T06:38:29;2.90;;;2.63;;
211;SDS011;16228;48.800;9.002;2022-07-29T06:40:56;3.80;;;3.37;;
211;SDS011;16228;48.800;9.002;2022-07-29T06:43:30;3.13;;;2.87;;
211;SDS011;16228;48.800;9.002;2022-07-29T06:46:01;3.93;;;3.40;;
211;SDS011;16228;48.800;9.002;2022-07-29T06:48:31;4.33;;;2.80;;
211;SDS011;16228;48.800;9.002;2022-07-29T06:50:58;6.30;;;3.30;;
211;SDS011;16228;48.800;9.002;2022-07-29T06:53:25;4.30;;;3.10;;
211;SDS011;16228;48.800;9.002;2022-07-29T06:55:52;4.77;;;3.53;;
211;SDS011;16228;48.800;9.002;2022-07-29T06:58:19;4.07;;;3.23;;
211;SDS011;16228;48.800;9.002;2022-07-29T07:00:47;3.50;;;2.73;;
211;SDS011;16228;48.800;9.002;2022-07-29T07:03:14;2.73;;;2.50;;
211;SDS011;16228;48.800;9.002;2022-07-29T07:05:42;3.63;;;3.20;;
211;SDS011;16228;48.800;9.002;2022-07-29T07:08:10;4.87;;;3.30;;
211;SDS011;16228;48.800;9.002;2022-07-29T07:10:37;4.23;;;2.70;;
211;SDS011;16228;48.800;9.002;2022-07-29T07:13:05;2.97;;;2.70;;
211;SDS011;16228;48.800;9.002;2022-07-29T07:15:32;4.33;;;2.90;;
211;SDS011;16228;48.800;9.002;2022-07-29T07:17:59;5.37;;;3.07;;
211;SDS011;16228;48.800;9.002;2022-07-29T07:20:26;3.10;;;2.80;;
211;SDS011;16228;48.800;9.002;2022-07-29T07:22:54;4.50;;;3.00;;
211;SDS011;16228;48.800;9.002;2022-07-29T07:25:21;3.27;;;2.87;;
211;SDS011;16228;48.800;9.002;2022-07-29T07:27:48;4.70;;;2.90;;
211;SDS011;16228;48.800;9.002;2022-07-29T07:30:15;3.43;;;3.13;;
211;SDS011;16228;48.800;9.002;2022-07-29T07:32:42;3.03;;;2.83;;
211;SDS011;16228;48.800;9.002;2022-07-29T07:35:10;4.60;;;3.10;;
211;SDS011;16228;48.800;9.002;2022-07-29T07:37:37;3.83;;;3.03;;
211;SDS011;16228;48.800;9.002;2022-07-29T07:40:07;5.13;;;3.10;;
211;SDS011;16228;48.800;9.002;2022-07-29T07:42:36;3.00;;;2.33;;
211;SDS011;16228;48.800;9.002;2022-07-29T07:45:03;4.28;;;2.47;;
211;SDS011;16228;48.800;9.002;2022-07-29T07:47:31;4.53;;;2.88;;
211;SDS011;16228;48.800;9.002;2022-07-29T07:49:58;4.63;;;2.97;;
211;SDS011;16228;48.800;9.002;2022-07-29T07:52:25;4.03;;;2.63;;
211;SDS011;16228;48.800;9.002;2022-07-29T07:54:52;4.15;;;2.65;;
211;SDS011;16228;48.800;9.002;2022-07-29T07:57:20;3.90;;;2.70;;
211;SDS011;16228;48.800;9.002;2022-07-29T07:59:47;4.25;;;3.40;;
211;SDS011;16228;48.800;9.002;2022-07-29T08:02:14;4.78;;;2.83;;
211;SDS011;16228;48.800;9.002;2022-07-29T08:04:42;3.75;;;2.60;;
211;SDS011;16228;48.800;9.002;2022-07-29T08:07:09;3.70;;;2.90;;
211;SDS011;16228;48.800;9.002;2022-07-29T08:09:36;3.10;;;2.50;;
211;SDS011;16228;48.800;9.002;2022-07-29T08:12:03;4.10;;;2.55;;
211;SDS011;16228;48.800;9.002;2022-07-29T08:14:32;2.90;;;2.60;;
211;SDS011;16228;48.800;9.002;2022-07-29T08:16:59;6.25;;;2.75;;
211;SDS011;16228;48.800;9.002;2022-07-29T08:19:26;2.80;;;2.20;;
211;SDS011;16228;48.800;9.002;2022-07-29T08:21:53;5.57;;;2.97;;
211;SDS011;16228;48.800;9.002;2022-07-29T08:24:21;3.83;;;2.38;;
211;SDS011;16228;48.800;9.002;2022-07-29T08:27:05;3.13;;;2.17;;
211;SDS011;16228;48.800;9.002;2022-07-29T08:29:34;3.83;;;2.67;;
211;SDS011;16228;48.800;9.002;2022-07-29T08:32:01;3.22;;;2.33;;
211;SDS011;16228;48.800;9.002;2022-07-29T08:34:28;2.70;;;2.50;;
211;SDS011;16228;48.800;9.002;2022-07-29T08:36:55;3.88;;;2.33;;
211;SDS011;16228;48.800;9.002;2022-07-29T08:39:22;2.45;;;2.10;;
211;SDS011;16228;48.800;9.002;2022-07-29T08:41:50;3.08;;;2.50;;
211;SDS011;16228;48.800;9.002;2022-07-29T08:44:18;4.43;;;2.47;;
211;SDS011;16228;48.800;9.002;2022-07-29T08:46:48;3.50;;;2.50;;
211;SDS011;16228;48.800;9.002;2022-07-29T08:49:15;2.90;;;2.20;;
211;SDS011;16228;48.800;9.002;2022-07-29T08:51:43;2.88;;;2.58;;
211;SDS011;16228;48.800;9.002;2022-07-29T08:54:11;3.15;;;2.10;;
211;SDS011;16228;48.800;9.002;2022-07-29T08:56:42;4.00;;;2.25;;
211;SDS011;16228;48.800;9.002;2022-07-29T08:59:09;3.47;;;2.58;;
211;SDS011;16228;48.800;9.002;2022-07-29T09:01:37;3.65;;;2.70;;
211;SDS011;16228;48.800;9.002;2022-07-29T09:04:09;3.55;;;2.40;;
211;SDS011;16228;48.800;9.002;2022-07-29T09:06:39;2.97;;;2.30;;
211;SDS011;16228;48.800;9.002;2022-07-29T09:09:10;3.25;;;2.70;;
211;SDS011;16228;48.800;9.002;2022-07-29T09:11:38;2.72;;;2.00;;
211;SDS011;16228;48.800;9.002;2022-07-29T09:14:05;2.40;;;2.20;;
211;SDS011;16228;48.800;9.002;2022-07-29T09:19:21;3.13;;;2.47;;
211;SDS011;16228;48.800;9.002;2022-07-29T09:21:49;5.65;;;2.20;;
211;SDS011;16228;48.800;9.002;2022-07-29T09:24:38;2.92;;;2.30;;
211;SDS011;16228;48.800;9.002;2022-07-29T09:27:10;3.47;;;2.42;;
211;SDS011;16228;48.800;9.002;2022-07-29T09:29:45;4.15;;;2.45;;
211;SDS011;16228;48.800;9.002;2022-07-29T09:32:12;3.63;;;2.15;;
211;SDS011;16228;48.800;9.002;2022-07-29T09:34:40;3.50;;;2.20;;
211;SDS011;16228;48.800;9.002;2022-07-29T09:37:07;4.28;;;2.80;;
211;SDS011;16228;48.800;9.002;2022-07-29T09:39:35;4.97;;;2.60;;
211;SDS011;16228;48.800;9.002;2022-07-29T09:42:09;3.92;;;2.78;;
211;SDS011;16228;48.800;9.002;2022-07-29T09:44:42;3.25;;;2.50;;
211;SDS011;16228;48.800;9.002;2022-07-29T09:47:10;5.25;;;2.50;;
211;SDS011;16228;48.800;9.002;2022-07-29T09:49:51;2.72;;;2.47;;
211;SDS011;16228;48.800;9.002;2022-07-29T09:52:19;3.33;;;2.47;;
211;SDS011;16228;48.800;9.002;2022-07-29T09:54:47;5.90;;;2.40;;
211;SDS011;16228;48.800;9.002;2022-07-29T09:57:24;4.15;;;2.13;;
211;SDS011;16228;48.800;9.002;2022-07-29T09:59:55;3.83;;;2.70;;
211;SDS011;16228;48.800;9.002;2022-07-29T10:02:27;5.55;;;3.15;;
211;SDS011;16228;48.800;9.002;2022-07-29T10:04:56;3.85;;;2.47;;
211;SDS011;16228;48.800;9.002;2022-07-29T10:07:25;3.33;;;2.80;;
211;SDS011;16228;48.800;9.002;2022-07-29T10:09:53;4.00;;;2.87;;
211;SDS011;16228;48.800;9.002;2022-07-29T10:12:21;3.60;;;2.87;;
211;SDS011;16228;48.800;9.002;2022-07-29T10:14:49;4.13;;;3.03;;
211;SDS011;16228;48.800;9.002;2022-07-29T10:17:17;4.93;;;2.83;;
211;SDS011;16228;48.800;9.002;2022-07-29T10:19:44;3.80;;;2.90;;
211;SDS011;16228;48.800;9.002;2022-07-29T10:22:13;5.43;;;2.93;;
211;SDS011;16228;48.800;9.002;2022-07-29T10:24:40;5.53;;;3.13;;
211;SDS011;16228;48.800;9.002;2022-07-29T10:27:08;4.07;;;2.77;;
211;SDS011;16228;48.800;9.002;2022-07-29T10:29:35;3.27;;;2.90;;
211;SDS011;16228;48.800;9.002;2022-07-29T10:35:01;4.03;;;3.10;;
211;SDS011;16228;48.800;9.002;2022-07-29T10:37:45;4.57;;;3.00;;
211;SDS011;16228;48.800;9.002;2022-07-29T10:40:26;4.07;;;3.03;;
211;SDS011;16228;48.800;9.002;2022-07-29T10:43:19;4.03;;;3.73;;
211;SDS011;16228;48.800;9.002;2022-07-29T10:45:49;4.40;;;3.87;;
211;SDS011;16228;48.800;9.002;2022-07-29T10:48:23;4.90;;;4.50;;
211;SDS011;16228;48.800;9.002;2022-07-29T10:50:54;3.83;;;3.53;;
211;SDS011;16228;48.800;9.002;2022-07-29T10:53:45;5.20;;;4.70;;
211;SDS011;16228;48.800;9.002;2022-07-29T10:56:25;6.90;;;5.43;;
211;SDS011;16228;48.800;9.002;2022-07-29T11:01:49;10.40;;;6.03;;
211;SDS011;16228;48.800;9.002;2022-07-29T11:04:22;8.50;;;7.60;;
211;SDS011;16228;48.800;9.002;2022-07-29T11:07:25;11.47;;;8.30;;
211;SDS011;16228;48.800;9.002;2022-07-29T11:12:52;11.43;;;8.83;;
211;SDS011;16228;48.800;9.002;2022-07-29T11:15:20;10.27;;;8.00;;
211;SDS011;16228;48.800;9.002;2022-07-29T11:18:02;8.73;;;7.70;;
211;SDS011;16228;48.800;9.002;2022-07-29T11:20:38;10.47;;;9.40;;
211;SDS011;16228;48.800;9.002;2022-07-29T11:23:23;11.80;;;9.33;;
211;SDS011;16228;48.800;9.002;2022-07-29T11:28:49;10.23;;;6.40;;
211;SDS011;16228;48.800;9.002;2022-07-29T11:31:20;7.37;;;5.23;;
211;SDS011;16228;48.800;9.002;2022-07-29T11:39:46;6.67;;;5.73;;
211;SDS011;16228;48.800;9.002;2022-07-29T11:45:23;5.87;;;4.40;;
211;SDS011;16228;48.800;9.002;2022-07-29T11:47:57;5.90;;;4.43;;
211;SDS011;16228;48.800;9.002;2022-07-29T11:50:29;6.23;;;5.27;;
211;SDS011;16228;48.800;9.002;2022-07-29T11:52:58;5.57;;;5.07;;
211;SDS011;16228;48.800;9.002;2022-07-29T11:55:26;11.17;;;4.13;;
211;SDS011;16228;48.800;9.002;2022-07-29T11:57:56;5.83;;;5.17;;
211;SDS011;16228;48.800;9.002;2022-07-29T12:00:26;4.83;;;4.23;;
211;SDS011;16228;48.800;9.002;2022-07-29T12:02:55;5.17;;;4.70;;
211;SDS011;16228;48.800;9.002;2022-07-29T12:05:30;8.27;;;4.60;;
211;SDS011;16228;48.800;9.002;2022-07-29T12:08:05;4.87;;;4.30;;
211;SDS011;16228;48.800;9.002;2022-07-29T12:10:33;5.27;;;3.90;;
211;SDS011;16228;48.800;9.002;2022-07-29T12:13:01;5.10;;;4.03;;
211;SDS011;16228;48.800;9.002;2022-07-29T12:15:29;5.83;;;4.57;;
211;SDS011;16228;48.800;9.002;2022-07-29T12:17:56;4.60;;;3.90;;
211;SDS011;16228;48.800;9.002;2022-07-29T12:20:24;4.33;;;3.67;;
211;SDS011;16228;48.800;9.002;2022-07-29T12:22:52;4.67;;;4.27;;
211;SDS011;16228;48.800;9.002;2022-07-29T12:25:20;4.33;;;3.93;;
211;SDS011;16228;48.800;9.002;2022-07-29T12:27:52;5.33;;;4.40;;
211;SDS011;16228;48.800;9.002;2022-07-29T12:30:33;4.47;;;4.07;;
211;SDS011;16228;48.800;9.002;2022-07-29T12:33:16;4.20;;;3.90;;
211;SDS011;16228;48.800;9.002;2022-07-29T12:35:45;4.97;;;4.47;;
211;SDS011;16228;48.800;9.002;2022-07-29T12:38:14;5.43;;;3.60;;
211;SDS011;16228;48.800;9.002;2022-07-29T12:40:41;6.60;;;4.20;;
211;SDS011;16228;48.800;9.002;2022-07-29T12:43:10;5.80;;;5.30;;
211;SDS011;16228;48.800;9.002;2022-07-29T12:45:40;4.43;;;4.10;;
211;SDS011;16228;48.800;9.002;2022-07-29T12:48:09;5.77;;;4.87;;
211;SDS011;16228;48.800;9.002;2022-07-29T12:50:36;4.80;;;4.40;;
211;SDS011;16228;48.800;9.002;2022-07-29T12:53:18;4.40;;;3.80;;
211;SDS011;16228;48.800;9.002;2022-07-29T12:55:47;4.40;;;3.40;;
211;SDS011;16228;48.800;9.002;2022-07-29T12:58:26;4.10;;;3.73;;
211;SDS011;16228;48.800;9.002;2022-07-29T13:01:03;4.67;;;4.27;;
211;SDS011;16228;48.800;9.002;2022-07-29T13:03:47;6.30;;;5.10;;
211;SDS011;16228;48.800;9.002;2022-07-29T13:06:28;5.43;;;4.53;;
211;SDS011;16228;48.800;9.002;2022-07-29T13:09:05;5.43;;;4.93;;
211;SDS011;16228;48.800;9.002;2022-07-29T13:11:36;4.03;;;3.73;;
211;SDS011;16228;48.800;9.002;2022-07-29T13:14:05;4.80;;;3.77;;
211;SDS011;16228;48.800;9.002;2022-07-29T13:16:35;4.90;;;4.17;;
211;SDS011;16228;48.800;9.002;2022-07-29T13:19:06;5.07;;;4.53;;
211;SDS011;16228;48.800;9.002;2022-07-29T13:21:35;5.97;;;3.87;;
211;SDS011;16228;48.800;9.002;2022-07-29T13:24:03;4.27;;;3.43;;
211;SDS011;16228;48.800;9.002;2022-07-29T13:26:30;3.90;;;3.60;;
211;SDS011;16228;48.800;9.002;2022-07-29T13:28:58;4.57;;;3.27;;
211;SDS011;16228;48.800;9.002;2022-07-29T13:31:25;3.87;;;2.83;;
211;SDS011;16228;48.800;9.002;2022-07-29T13:33:53;4.30;;;3.47;;
211;SDS011;16228;48.800;9.002;2022-07-29T13:36:21;4.73;;;3.80;;
211;SDS011;16228;48.800;9.002;2022-07-29T13:38:48;4.53;;;3.13;;
211;SDS011;16228;48.800;9.002;2022-07-29T13:41:15;3.50;;;3.10;;
211;SDS011;16228;48.800;9.002;2022-07-29T13:43:42;4.23;;;3.73;;
211;SDS011;16228;48.800;9.002;2022-07-29T13:46:09;5.10;;;3.27;;
211;SDS011;16228;48.800;9.002;2022-07-29T13:48:36;3.70;;;3.40;;
211;SDS011;16228;48.800;9.002;2022-07-29T13:51:04;3.50;;;3.20;;
211;SDS011;16228;48.800;9.002;2022-07-29T13:53:31;7.97;;;3.33;;
211;SDS011;16228;48.800;9.002;2022-07-29T13:55:58;4.10;;;3.67;;
211;SDS011;16228;48.800;9.002;2022-07-29T13:58:25;3.67;;;3.00;;
211;SDS011;16228;48.800;9.002;2022-07-29T14:00:52;4.10;;;3.50;;
211;SDS011;16228;48.800;9.002;2022-07-29T14:03:19;3.57;;;3.27;;
211;SDS011;16228;48.800;9.002;2022-07-29T14:05:46;4.20;;;3.43;;
211;SDS011;16228;48.800;9.002;2022-07-29T14:08:15;4.20;;;3.83;;
211;SDS011;16228;48.800;9.002;2022-07-29T14:10:41;4.97;;;3.37;;
211;SDS011;16228;48.800;9.002;2022-07-29T14:13:09;3.87;;;3.57;;
211;SDS011;16228;48.800;9.002;2022-07-29T14:15:36;3.77;;;3.47;;
211;SDS011;16228;48.800;9.002;2022-07-29T14:18:03;3.77;;;3.33;;
211;SDS011;16228;48.800;9.002;2022-07-29T14:20:30;4.80;;;3.47;;
211;SDS011;16228;48.800;9.002;2022-07-29T14:22:57;5.93;;;3.80;;
211;SDS011;16228;48.800;9.002;2022-07-29T14:25:26;5.33;;;4.10;;
211;SDS011;16228;48.800;9.002;2022-07-29T14:27:52;4.27;;;3.93;;
211;SDS011;16228;48.800;9.002;2022-07-29T14:30:19;7.20;;;4.03;;
211;SDS011;16228;48.800;9.002;2022-07-29T14:32:47;5.83;;;3.93;;
211;SDS011;16228;48.800;9.002;2022-07-29T14:35:14;4.20;;;3.80;;
211;SDS011;16228;48.800;9.002;2022-07-29T14:37:41;3.93;;;3.37;;
211;SDS011;16228;48.800;9.002;2022-07-29T14:40:09;5.47;;;3.57;;
211;SDS011;16228;48.800;9.002;2022-07-29T14:42:38;3.33;;;3.13;;
211;SDS011;16228;48.800;9.002;2022-07-29T14:45:06;3.57;;;3.33;;
211;SDS011;16228;48.800;9.002;2022-07-29T14:47:34;6.00;;;3.80;;
211;SDS011;16228;48.800;9.002;2022-07-29T14:50:02;3.97;;;3.57;;
211;SDS011;16228;48.800;9.002;2022-07-29T14:52:30;3.97;;;3.07;;
211;SDS011;16228;48.800;9.002;2022-07-29T14:54:57;3.00;;;2.70;;
211;SDS011;16228;48.800;9.002;2022-07-29T14:57:24;4.90;;;3.53;;
211;SDS011;16228;48.800;9.002;2022-07-29T14:59:52;3.50;;;3.20;;
211;SDS011;16228;48.800;9.002;2022-07-29T15:02:19;7.57;;;3.20;;
211;SDS011;16228;48.800;9.002;2022-07-29T15:04:46;3.57;;;2.80;;
211;SDS011;16228;48.800;9.002;2022-07-29T15:07:13;4.27;;;3.03;;
211;SDS011;16228;48.800;9.002;2022-07-29T15:09:40;5.47;;;3.27;;
211;SDS011;16228;48.800;9.002;2022-07-29T15:12:07;4.07;;;3.17;;
211;SDS011;16228;48.800;9.002;2022-07-29T15:14:35;3.33;;;3.00;;
211;SDS011;16228;48.800;9.002;2022-07-29T15:17:04;4.17;;;3.00;;
211;SDS011;16228;48.800;9.002;2022-07-29T15:19:31;3.43;;;2.80;;
211;SDS011;16228;48.800;9.002;2022-07-29T15:21:58;2.70;;;2.30;;
211;SDS011;16228;48.800;9.002;2022-07-29T15:24:25;3.73;;;2.87;;
211;SDS011;16228;48.800;9.002;2022-07-29T15:26:51;3.00;;;2.80;;
211;SDS011;16228;48.800;9.002;2022-07-29T15:29:18;3.90;;;2.70;;
211;SDS011;16228;48.800;9.002;2022-07-29T15:31:46;3.23;;;2.97;;
211;SDS011;16228;48.800;9.002;2022-07-29T15:34:14;3.67;;;2.70;;
211;SDS011;16228;48.800;9.002;2022-07-29T15:36:41;3.23;;;2.93;;
211;SDS011;16228;48.800;9.002;2022-07-29T15:39:08;4.23;;;3.03;;
211;SDS011;16228;48.800;9.002;2022-07-29T15:41:35;6.57;;;4.40;;
211;SDS011;16228;48.800;9.002;2022-07-29T15:44:02;7.87;;;5.10;;
211;SDS011;16228;48.800;9.002;2022-07-29T15:46:30;6.33;;;3.53;;
211;SDS011;16228;48.800;9.002;2022-07-29T15:49:15;4.50;;;3.87;;
211;SDS011;16228;48.800;9.002;2022-07-29T15:51:42;3.30;;;2.90;;